sensor_id;sensor_type;location;lat;lon;timestamp;P1;durP1;ratioP1;P2;durP2;ratioP2
13122;SDS011;6627;50.920;12.050;2023-07-08T00:01:17;8.50;;;5.30;;
13122;SDS011;6627;50.920;12.050;2023-07-08T00:03:47;8.40;;;5.77;;
13122;SDS011;6627;50.920;12.050;2023-07-08T00:06:17;7.40;;;5.97;;
13122;SDS011;6627;50.920;12.050;2023-07-08T00:08:47;10.27;;;5.67;;
13122;SDS011;6627;50.920;12.050;2023-07-08T00:11:15;7.50;;;5.53;;
13122;SDS011;6627;50.920;12.050;2023-07-08T00:13:43;6.87;;;5.50;;
13122;SDS011;6627;50.920;12.050;2023-07-08T00:16:13;7.47;;;5.30;;
13122;SDS011;6627;50.920;12.050;2023-07-08T00:18:44;7.23;;;5.53;;
13122;SDS011;6627;50.920;12.050;2023-07-08T00:21:14;9.63;;;5.67;;
13122;SDS011;6627;50.920;12.050;2023-07-08T00:23:44;7.93;;;5.80;;
13122;SDS011;6627;50.920;12.050;2023-07-08T00:26:15;7.07;;;5.20;;
13122;SDS011;6627;50.920;12.050;2023-07-08T00:28:46;7.23;;;5.33;;
13122;SDS011;6627;50.920;12.050;2023-07-08T00:31:15;6.83;;;5.03;;
13122;SDS011;6627;50.920;12.050;2023-07-08T00:33:49;7.03;;;4.93;;
13122;SDS011;6627;50.920;12.050;2023-07-08T00:36:16;6.73;;;5.53;;
13122;SDS011;6627;50.920;12.050;2023-07-08T00:38:44;5.80;;;4.97;;
13122;SDS011;6627;50.920;12.050;2023-07-08T00:41:12;8.33;;;5.37;;
13122;SDS011;6627;50.920;12.050;2023-07-08T00:43:48;5.43;;;4.93;;
13122;SDS011;6627;50.920;12.050;2023-07-08T00:46:29;5.90;;;5.03;;
13122;SDS011;6627;50.920;12.050;2023-07-08T00:49:14;9.23;;;5.60;;
13122;SDS011;6627;50.920;12.050;2023-07-08T00:51:53;6.83;;;5.57;;
13122;SDS011;6627;50.920;12.050;2023-07-08T00:54:20;6.23;;;5.50;;
13122;SDS011;6627;50.920;12.050;2023-07-08T00:56:49;7.37;;;5.03;;
13122;SDS011;6627;50.920;12.050;2023-07-08T00:59:23;8.00;;;5.53;;
13122;SDS011;6627;50.920;12.050;2023-07-08T01:01:59;6.13;;;5.30;;
13122;SDS011;6627;50.920;12.050;2023-07-08T01:04:32;5.77;;;5.10;;
13122;SDS011;6627;50.920;12.050;2023-07-08T01:07:07;8.30;;;5.30;;
13122;SDS011;6627;50.920;12.050;2023-07-08T01:09:37;6.07;;;5.30;;
13122;SDS011;6627;50.920;12.050;2023-07-08T01:12:13;6.70;;;5.50;;
13122;SDS011;6627;50.920;12.050;2023-07-08T01:14:48;6.53;;;5.50;;
13122;SDS011;6627;50.920;12.050;2023-07-08T01:17:21;8.43;;;5.40;;
13122;SDS011;6627;50.920;12.050;2023-07-08T01:19:50;8.40;;;5.37;;
13122;SDS011;6627;50.920;12.050;2023-07-08T01:22:21;7.40;;;5.10;;
13122;SDS011;6627;50.920;12.050;2023-07-08T01:24:48;5.87;;;5.07;;
13122;SDS011;6627;50.920;12.050;2023-07-08T01:27:16;7.33;;;5.53;;
13122;SDS011;6627;50.920;12.050;2023-07-08T01:29:46;7.00;;;5.30;;
13122;SDS011;6627;50.920;12.050;2023-07-08T01:32:14;8.23;;;5.70;;
13122;SDS011;6627;50.920;12.050;2023-07-08T01:34:45;8.30;;;5.33;;
13122;SDS011;6627;50.920;12.050;2023-07-08T01:37:27;6.27;;;5.17;;
13122;SDS011;6627;50.920;12.050;2023-07-08T01:42:53;5.73;;;5.23;;
13122;SDS011;6627;50.920;12.050;2023-07-08T01:45:22;6.40;;;5.00;;
13122;SDS011;6627;50.920;12.050;2023-07-08T01:47:54;10.97;;;5.70;;
13122;SDS011;6627;50.920;12.050;2023-07-08T01:50:26;9.13;;;5.30;;
13122;SDS011;6627;50.920;12.050;2023-07-08T01:52:58;6.07;;;5.23;;
13122;SDS011;6627;50.920;12.050;2023-07-08T01:55:28;6.93;;;5.50;;
13122;SDS011;6627;50.920;12.050;2023-07-08T01:57:56;7.30;;;5.70;;
13122;SDS011;6627;50.920;12.050;2023-07-08T02:00:23;6.03;;;5.07;;
13122;SDS011;6627;50.920;12.050;2023-07-08T02:02:50;5.70;;;5.20;;
13122;SDS011;6627;50.920;12.050;2023-07-08T02:05:18;9.43;;;5.40;;
13122;SDS011;6627;50.920;12.050;2023-07-08T02:07:45;5.80;;;5.20;;
13122;SDS011;6627;50.920;12.050;2023-07-08T02:10:14;8.17;;;5.63;;
13122;SDS011;6627;50.920;12.050;2023-07-08T02:12:41;6.37;;;5.13;;
13122;SDS011;6627;50.920;12.050;2023-07-08T02:15:09;6.70;;;5.43;;
13122;SDS011;6627;50.920;12.050;2023-07-08T02:17:37;7.63;;;5.13;;
13122;SDS011;6627;50.920;12.050;2023-07-08T02:20:04;5.93;;;5.33;;
13122;SDS011;6627;50.920;12.050;2023-07-08T02:22:33;6.47;;;5.87;;
13122;SDS011;6627;50.920;12.050;2023-07-08T02:25:02;6.23;;;5.50;;
13122;SDS011;6627;50.920;12.050;2023-07-08T02:27:32;7.67;;;6.03;;
13122;SDS011;6627;50.920;12.050;2023-07-08T02:29:59;7.07;;;5.90;;
13122;SDS011;6627;50.920;12.050;2023-07-08T02:32:26;9.70;;;7.17;;
13122;SDS011;6627;50.920;12.050;2023-07-08T02:34:54;12.23;;;10.17;;
13122;SDS011;6627;50.920;12.050;2023-07-08T02:37:21;14.30;;;11.40;;
13122;SDS011;6627;50.920;12.050;2023-07-08T02:39:49;11.30;;;9.00;;
13122;SDS011;6627;50.920;12.050;2023-07-08T02:42:16;10.07;;;9.07;;
13122;SDS011;6627;50.920;12.050;2023-07-08T02:44:44;15.97;;;13.37;;
13122;SDS011;6627;50.920;12.050;2023-07-08T02:47:11;12.77;;;10.83;;
13122;SDS011;6627;50.920;12.050;2023-07-08T02:49:39;11.23;;;8.23;;
13122;SDS011;6627;50.920;12.050;2023-07-08T02:52:06;11.67;;;9.37;;
13122;SDS011;6627;50.920;12.050;2023-07-08T02:54:33;15.57;;;10.47;;
13122;SDS011;6627;50.920;12.050;2023-07-08T02:57:01;12.63;;;10.93;;
13122;SDS011;6627;50.920;12.050;2023-07-08T02:59:29;14.80;;;13.30;;
13122;SDS011;6627;50.920;12.050;2023-07-08T03:01:57;18.00;;;16.20;;
13122;SDS011;6627;50.920;12.050;2023-07-08T03:04:24;16.70;;;15.10;;
13122;SDS011;6627;50.920;12.050;2023-07-08T03:06:52;13.60;;;12.27;;
13122;SDS011;6627;50.920;12.050;2023-07-08T03:09:19;14.90;;;13.40;;
13122;SDS011;6627;50.920;12.050;2023-07-08T03:11:46;14.33;;;12.93;;
13122;SDS011;6627;50.920;12.050;2023-07-08T03:14:14;16.10;;;13.23;;
13122;SDS011;6627;50.920;12.050;2023-07-08T03:16:41;12.63;;;11.30;;
13122;SDS011;6627;50.920;12.050;2023-07-08T03:19:11;11.70;;;10.50;;
13122;SDS011;6627;50.920;12.050;2023-07-08T03:21:40;11.77;;;10.47;;
13122;SDS011;6627;50.920;12.050;2023-07-08T03:24:09;12.37;;;9.33;;
13122;SDS011;6627;50.920;12.050;2023-07-08T03:26:37;8.90;;;7.83;;
13122;SDS011;6627;50.920;12.050;2023-07-08T03:29:06;11.20;;;8.20;;
13122;SDS011;6627;50.920;12.050;2023-07-08T03:31:40;8.93;;;8.10;;
13122;SDS011;6627;50.920;12.050;2023-07-08T03:34:08;9.33;;;8.13;;
13122;SDS011;6627;50.920;12.050;2023-07-08T03:36:40;9.60;;;7.20;;
13122;SDS011;6627;50.920;12.050;2023-07-08T03:39:14;13.33;;;7.77;;
13122;SDS011;6627;50.920;12.050;2023-07-08T03:41:43;9.83;;;7.60;;
13122;SDS011;6627;50.920;12.050;2023-07-08T03:44:11;8.43;;;7.13;;
13122;SDS011;6627;50.920;12.050;2023-07-08T03:46:41;7.57;;;6.80;;
13122;SDS011;6627;50.920;12.050;2023-07-08T03:49:09;7.50;;;6.80;;
13122;SDS011;6627;50.920;12.050;2023-07-08T03:51:39;8.37;;;7.00;;
13122;SDS011;6627;50.920;12.050;2023-07-08T03:54:08;8.30;;;6.50;;
13122;SDS011;6627;50.920;12.050;2023-07-08T03:56:38;7.77;;;6.57;;
13122;SDS011;6627;50.920;12.050;2023-07-08T03:59:06;7.70;;;6.90;;
13122;SDS011;6627;50.920;12.050;2023-07-08T04:01:33;10.10;;;6.63;;
13122;SDS011;6627;50.920;12.050;2023-07-08T04:04:01;10.23;;;7.40;;
13122;SDS011;6627;50.920;12.050;2023-07-08T04:06:30;7.20;;;6.50;;
13122;SDS011;6627;50.920;12.050;2023-07-08T04:08:59;10.27;;;7.60;;
13122;SDS011;6627;50.920;12.050;2023-07-08T04:11:27;8.70;;;7.00;;
13122;SDS011;6627;50.920;12.050;2023-07-08T04:13:54;8.23;;;6.47;;
13122;SDS011;6627;50.920;12.050;2023-07-08T04:16:21;10.10;;;7.37;;
13122;SDS011;6627;50.920;12.050;2023-07-08T04:18:54;7.90;;;7.10;;
13122;SDS011;6627;50.920;12.050;2023-07-08T04:21:22;7.97;;;7.07;;
13122;SDS011;6627;50.920;12.050;2023-07-08T04:23:53;8.10;;;7.03;;
13122;SDS011;6627;50.920;12.050;2023-07-08T04:26:20;15.57;;;7.40;;
13122;SDS011;6627;50.920;12.050;2023-07-08T04:28:47;10.93;;;6.53;;
13122;SDS011;6627;50.920;12.050;2023-07-08T04:31:14;27.10;;;9.77;;
13122;SDS011;6627;50.920;12.050;2023-07-08T04:33:42;8.80;;;6.70;;
13122;SDS011;6627;50.920;12.050;2023-07-08T04:36:10;11.93;;;7.10;;
13122;SDS011;6627;50.920;12.050;2023-07-08T04:38:40;7.73;;;6.10;;
13122;SDS011;6627;50.920;12.050;2023-07-08T04:41:13;9.70;;;6.67;;
13122;SDS011;6627;50.920;12.050;2023-07-08T04:43:40;13.63;;;6.90;;
13122;SDS011;6627;50.920;12.050;2023-07-08T04:46:10;8.13;;;6.70;;
13122;SDS011;6627;50.920;12.050;2023-07-08T04:48:46;9.87;;;7.17;;
13122;SDS011;6627;50.920;12.050;2023-07-08T04:51:13;12.70;;;7.30;;
13122;SDS011;6627;50.920;12.050;2023-07-08T04:53:40;7.57;;;6.73;;
13122;SDS011;6627;50.920;12.050;2023-07-08T04:56:07;9.03;;;7.13;;
13122;SDS011;6627;50.920;12.050;2023-07-08T04:58:36;11.20;;;6.87;;
13122;SDS011;6627;50.920;12.050;2023-07-08T05:01:03;9.47;;;7.13;;
13122;SDS011;6627;50.920;12.050;2023-07-08T05:03:30;8.13;;;6.97;;
13122;SDS011;6627;50.920;12.050;2023-07-08T05:05:58;8.73;;;7.40;;
13122;SDS011;6627;50.920;12.050;2023-07-08T05:08:25;12.03;;;8.47;;
13122;SDS011;6627;50.920;12.050;2023-07-08T05:10:52;11.40;;;8.30;;
13122;SDS011;6627;50.920;12.050;2023-07-08T05:13:19;11.17;;;8.37;;
13122;SDS011;6627;50.920;12.050;2023-07-08T05:15:48;13.67;;;8.93;;
13122;SDS011;6627;50.920;12.050;2023-07-08T05:18:16;8.50;;;7.60;;
13122;SDS011;6627;50.920;12.050;2023-07-08T05:20:49;11.33;;;8.10;;
13122;SDS011;6627;50.920;12.050;2023-07-08T05:23:17;8.73;;;7.07;;
13122;SDS011;6627;50.920;12.050;2023-07-08T05:25:44;8.40;;;7.60;;
13122;SDS011;6627;50.920;12.050;2023-07-08T05:28:11;8.97;;;6.37;;
13122;SDS011;6627;50.920;12.050;2023-07-08T05:30:39;8.93;;;7.27;;
13122;SDS011;6627;50.920;12.050;2023-07-08T05:33:08;9.27;;;7.63;;
13122;SDS011;6627;50.920;12.050;2023-07-08T05:35:35;9.23;;;7.57;;
13122;SDS011;6627;50.920;12.050;2023-07-08T05:38:03;11.80;;;7.50;;
13122;SDS011;6627;50.920;12.050;2023-07-08T05:40:30;11.20;;;7.63;;
13122;SDS011;6627;50.920;12.050;2023-07-08T05:42:57;7.77;;;7.00;;
13122;SDS011;6627;50.920;12.050;2023-07-08T05:45:25;9.10;;;7.10;;
13122;SDS011;6627;50.920;12.050;2023-07-08T05:47:52;7.87;;;6.53;;
13122;SDS011;6627;50.920;12.050;2023-07-08T05:50:20;10.73;;;7.10;;
13122;SDS011;6627;50.920;12.050;2023-07-08T05:52:48;9.57;;;7.00;;
13122;SDS011;6627;50.920;12.050;2023-07-08T05:55:15;9.37;;;6.90;;
13122;SDS011;6627;50.920;12.050;2023-07-08T05:57:42;10.77;;;7.03;;
13122;SDS011;6627;50.920;12.050;2023-07-08T06:00:10;7.57;;;6.87;;
13122;SDS011;6627;50.920;12.050;2023-07-08T06:02:38;8.53;;;6.97;;
13122;SDS011;6627;50.920;12.050;2023-07-08T06:05:05;7.33;;;6.63;;
13122;SDS011;6627;50.920;12.050;2023-07-08T06:07:35;7.80;;;6.60;;
13122;SDS011;6627;50.920;12.050;2023-07-08T06:10:02;11.43;;;6.33;;
13122;SDS011;6627;50.920;12.050;2023-07-08T06:12:30;7.67;;;6.77;;
13122;SDS011;6627;50.920;12.050;2023-07-08T06:14:58;8.33;;;6.10;;
13122;SDS011;6627;50.920;12.050;2023-07-08T06:17:26;8.27;;;6.60;;
13122;SDS011;6627;50.920;12.050;2023-07-08T06:19:54;8.00;;;6.03;;
13122;SDS011;6627;50.920;12.050;2023-07-08T06:22:21;7.37;;;6.00;;
13122;SDS011;6627;50.920;12.050;2023-07-08T06:24:49;8.43;;;5.83;;
13122;SDS011;6627;50.920;12.050;2023-07-08T06:27:17;8.47;;;5.57;;
13122;SDS011;6627;50.920;12.050;2023-07-08T06:29:44;8.63;;;5.57;;
13122;SDS011;6627;50.920;12.050;2023-07-08T06:32:11;9.47;;;5.37;;
13122;SDS011;6627;50.920;12.050;2023-07-08T06:34:39;5.80;;;5.00;;
13122;SDS011;6627;50.920;12.050;2023-07-08T06:37:06;11.70;;;5.67;;
13122;SDS011;6627;50.920;12.050;2023-07-08T06:39:33;7.30;;;5.67;;
13122;SDS011;6627;50.920;12.050;2023-07-08T06:42:02;7.97;;;5.60;;
13122;SDS011;6627;50.920;12.050;2023-07-08T06:44:30;9.30;;;5.23;;
13122;SDS011;6627;50.920;12.050;2023-07-08T06:46:57;6.73;;;5.30;;
13122;SDS011;6627;50.920;12.050;2023-07-08T06:49:24;6.63;;;5.40;;
13122;SDS011;6627;50.920;12.050;2023-07-08T06:51:51;5.93;;;5.20;;
13122;SDS011;6627;50.920;12.050;2023-07-08T06:54:19;7.70;;;5.30;;
13122;SDS011;6627;50.920;12.050;2023-07-08T06:56:46;7.40;;;4.97;;
13122;SDS011;6627;50.920;12.050;2023-07-08T06:59:14;6.93;;;5.00;;
13122;SDS011;6627;50.920;12.050;2023-07-08T07:01:41;8.60;;;4.97;;
13122;SDS011;6627;50.920;12.050;2023-07-08T07:04:09;5.40;;;4.90;;
13122;SDS011;6627;50.920;12.050;2023-07-08T07:06:36;7.13;;;4.90;;
13122;SDS011;6627;50.920;12.050;2023-07-08T07:09:03;6.03;;;4.80;;
13122;SDS011;6627;50.920;12.050;2023-07-08T07:11:30;6.57;;;4.37;;
13122;SDS011;6627;50.920;12.050;2023-07-08T07:13:57;7.17;;;4.87;;
13122;SDS011;6627;50.920;12.050;2023-07-08T07:16:26;5.97;;;5.03;;
13122;SDS011;6627;50.920;12.050;2023-07-08T07:18:53;6.13;;;5.07;;
13122;SDS011;6627;50.920;12.050;2023-07-08T07:21:21;7.17;;;4.47;;
13122;SDS011;6627;50.920;12.050;2023-07-08T07:23:48;9.03;;;5.07;;
13122;SDS011;6627;50.920;12.050;2023-07-08T07:26:15;6.27;;;4.67;;
13122;SDS011;6627;50.920;12.050;2023-07-08T07:28:43;7.50;;;4.43;;
13122;SDS011;6627;50.920;12.050;2023-07-08T07:31:10;5.37;;;4.37;;
13122;SDS011;6627;50.920;12.050;2023-07-08T07:33:38;5.87;;;4.90;;
13122;SDS011;6627;50.920;12.050;2023-07-08T07:36:06;10.30;;;4.97;;
13122;SDS011;6627;50.920;12.050;2023-07-08T07:38:33;5.23;;;4.73;;
13122;SDS011;6627;50.920;12.050;2023-07-08T07:41:01;4.67;;;4.17;;
13122;SDS011;6627;50.920;12.050;2023-07-08T07:43:32;6.27;;;4.53;;
13122;SDS011;6627;50.920;12.050;2023-07-08T07:45:59;7.67;;;4.73;;
13122;SDS011;6627;50.920;12.050;2023-07-08T07:48:28;6.33;;;4.80;;
13122;SDS011;6627;50.920;12.050;2023-07-08T07:50:56;5.10;;;4.60;;
13122;SDS011;6627;50.920;12.050;2023-07-08T07:53:24;6.77;;;5.13;;
13122;SDS011;6627;50.920;12.050;2023-07-08T07:55:55;6.87;;;4.80;;
13122;SDS011;6627;50.920;12.050;2023-07-08T07:58:24;7.30;;;4.60;;
13122;SDS011;6627;50.920;12.050;2023-07-08T08:00:51;6.33;;;4.67;;
13122;SDS011;6627;50.920;12.050;2023-07-08T08:03:18;5.73;;;4.70;;
13122;SDS011;6627;50.920;12.050;2023-07-08T08:05:46;5.33;;;4.40;;
13122;SDS011;6627;50.920;12.050;2023-07-08T08:08:15;5.57;;;4.40;;
13122;SDS011;6627;50.920;12.050;2023-07-08T08:10:42;6.23;;;4.40;;
13122;SDS011;6627;50.920;12.050;2023-07-08T08:13:10;6.03;;;4.60;;
13122;SDS011;6627;50.920;12.050;2023-07-08T08:15:37;5.53;;;4.73;;
13122;SDS011;6627;50.920;12.050;2023-07-08T08:18:05;5.90;;;4.60;;
13122;SDS011;6627;50.920;12.050;2023-07-08T08:20:32;5.60;;;4.20;;
13122;SDS011;6627;50.920;12.050;2023-07-08T08:22:59;4.97;;;4.50;;
13122;SDS011;6627;50.920;12.050;2023-07-08T08:25:28;5.23;;;4.50;;
13122;SDS011;6627;50.920;12.050;2023-07-08T08:27:55;6.40;;;4.60;;
13122;SDS011;6627;50.920;12.050;2023-07-08T08:30:22;5.93;;;4.47;;
13122;SDS011;6627;50.920;12.050;2023-07-08T08:32:50;6.13;;;4.57;;
13122;SDS011;6627;50.920;12.050;2023-07-08T08:35:17;5.03;;;4.50;;
13122;SDS011;6627;50.920;12.050;2023-07-08T08:37:44;5.70;;;4.33;;
13122;SDS011;6627;50.920;12.050;2023-07-08T08:40:12;5.13;;;4.50;;
13122;SDS011;6627;50.920;12.050;2023-07-08T08:42:44;5.93;;;4.33;;
13122;SDS011;6627;50.920;12.050;2023-07-08T08:45:19;5.67;;;4.67;;
13122;SDS011;6627;50.920;12.050;2023-07-08T08:47:51;6.43;;;4.70;;
13122;SDS011;6627;50.920;12.050;2023-07-08T08:50:27;6.20;;;4.17;;
13122;SDS011;6627;50.920;12.050;2023-07-08T08:53:10;5.70;;;4.17;;
13122;SDS011;6627;50.920;12.050;2023-07-08T08:55:42;5.60;;;4.30;;
13122;SDS011;6627;50.920;12.050;2023-07-08T08:58:13;4.80;;;4.30;;
13122;SDS011;6627;50.920;12.050;2023-07-08T09:00:56;10.40;;;4.63;;
13122;SDS011;6627;50.920;12.050;2023-07-08T09:03:34;8.38;;;4.80;;
13122;SDS011;6627;50.920;12.050;2023-07-08T09:06:09;4.97;;;4.47;;
13122;SDS011;6627;50.920;12.050;2023-07-08T09:08:40;6.22;;;4.47;;
13122;SDS011;6627;50.920;12.050;2023-07-08T09:11:15;5.15;;;4.22;;
13122;SDS011;6627;50.920;12.050;2023-07-08T09:13:53;6.68;;;4.60;;
13122;SDS011;6627;50.920;12.050;2023-07-08T09:16:25;5.63;;;4.40;;
13122;SDS011;6627;50.920;12.050;2023-07-08T09:19:08;4.72;;;4.32;;
13122;SDS011;6627;50.920;12.050;2023-07-08T09:21:41;5.15;;;4.60;;
13122;SDS011;6627;50.920;12.050;2023-07-08T09:24:16;7.37;;;4.70;;
13122;SDS011;6627;50.920;12.050;2023-07-08T09:26:49;5.07;;;4.40;;
13122;SDS011;6627;50.920;12.050;2023-07-08T09:29:20;5.15;;;4.68;;
13122;SDS011;6627;50.920;12.050;2023-07-08T09:31:49;5.15;;;4.65;;
13122;SDS011;6627;50.920;12.050;2023-07-08T09:34:17;5.55;;;4.53;;
13122;SDS011;6627;50.920;12.050;2023-07-08T09:36:49;5.55;;;4.40;;
13122;SDS011;6627;50.920;12.050;2023-07-08T09:39:20;4.68;;;4.28;;
13122;SDS011;6627;50.920;12.050;2023-07-08T09:41:48;4.88;;;4.30;;
13122;SDS011;6627;50.920;12.050;2023-07-08T09:44:18;6.40;;;4.68;;
13122;SDS011;6627;50.920;12.050;2023-07-08T09:46:54;5.32;;;4.38;;
13122;SDS011;6627;50.920;12.050;2023-07-08T09:49:26;4.85;;;4.35;;
13122;SDS011;6627;50.920;12.050;2023-07-08T09:51:57;4.93;;;4.05;;
13122;SDS011;6627;50.920;12.050;2023-07-08T09:54:25;4.47;;;4.07;;
13122;SDS011;6627;50.920;12.050;2023-07-08T09:57:00;5.28;;;4.68;;
13122;SDS011;6627;50.920;12.050;2023-07-08T09:59:39;5.18;;;4.50;;
13122;SDS011;6627;50.920;12.050;2023-07-08T10:02:23;5.18;;;4.68;;
13122;SDS011;6627;50.920;12.050;2023-07-08T10:04:54;6.47;;;4.13;;
13122;SDS011;6627;50.920;12.050;2023-07-08T10:07:27;6.35;;;4.47;;
13122;SDS011;6627;50.920;12.050;2023-07-08T10:09:57;4.75;;;4.07;;
13122;SDS011;6627;50.920;12.050;2023-07-08T10:12:28;5.15;;;4.30;;
13122;SDS011;6627;50.920;12.050;2023-07-08T10:15:03;5.18;;;4.53;;
13122;SDS011;6627;50.920;12.050;2023-07-08T10:17:43;4.90;;;4.45;;
13122;SDS011;6627;50.920;12.050;2023-07-08T10:20:11;5.75;;;4.07;;
13122;SDS011;6627;50.920;12.050;2023-07-08T10:22:41;5.68;;;4.60;;
13122;SDS011;6627;50.920;12.050;2023-07-08T10:25:24;4.70;;;4.20;;
13122;SDS011;6627;50.920;12.050;2023-07-08T10:28:03;5.95;;;4.03;;
13122;SDS011;6627;50.920;12.050;2023-07-08T10:30:55;3.95;;;3.63;;
13122;SDS011;6627;50.920;12.050;2023-07-08T10:33:41;5.07;;;3.85;;
13122;SDS011;6627;50.920;12.050;2023-07-08T10:36:47;4.78;;;3.78;;
13122;SDS011;6627;50.920;12.050;2023-07-08T10:39:33;6.68;;;3.63;;
13122;SDS011;6627;50.920;12.050;2023-07-08T10:42:27;5.35;;;3.80;;
13122;SDS011;6627;50.920;12.050;2023-07-08T10:45:12;3.70;;;3.40;;
13122;SDS011;6627;50.920;12.050;2023-07-08T10:47:51;3.72;;;3.20;;
13122;SDS011;6627;50.920;12.050;2023-07-08T10:50:39;6.07;;;3.60;;
13122;SDS011;6627;50.920;12.050;2023-07-08T10:53:29;4.78;;;3.42;;
13122;SDS011;6627;50.920;12.050;2023-07-08T10:56:12;4.38;;;3.95;;
13122;SDS011;6627;50.920;12.050;2023-07-08T10:58:46;4.43;;;4.00;;
13122;SDS011;6627;50.920;12.050;2023-07-08T11:01:35;4.93;;;3.58;;
13122;SDS011;6627;50.920;12.050;2023-07-08T11:04:21;5.70;;;3.80;;
13122;SDS011;6627;50.920;12.050;2023-07-08T11:07:08;5.18;;;3.90;;
13122;SDS011;6627;50.920;12.050;2023-07-08T11:09:45;5.10;;;3.67;;
13122;SDS011;6627;50.920;12.050;2023-07-08T11:12:21;4.65;;;3.92;;
13122;SDS011;6627;50.920;12.050;2023-07-08T11:14:56;4.20;;;3.80;;
13122;SDS011;6627;50.920;12.050;2023-07-08T11:17:34;5.35;;;4.07;;
13122;SDS011;6627;50.920;12.050;2023-07-08T11:20:13;4.10;;;3.72;;
13122;SDS011;6627;50.920;12.050;2023-07-08T11:22:49;7.00;;;3.83;;
13122;SDS011;6627;50.920;12.050;2023-07-08T11:25:24;5.10;;;3.80;;
13122;SDS011;6627;50.920;12.050;2023-07-08T11:27:55;5.65;;;4.03;;
13122;SDS011;6627;50.920;12.050;2023-07-08T11:30:30;6.70;;;4.22;;
13122;SDS011;6627;50.920;12.050;2023-07-08T11:33:05;4.25;;;3.90;;
13122;SDS011;6627;50.920;12.050;2023-07-08T11:35:40;6.90;;;3.92;;
13122;SDS011;6627;50.920;12.050;2023-07-08T11:38:12;5.78;;;4.30;;
13122;SDS011;6627;50.920;12.050;2023-07-08T11:40:49;4.53;;;4.10;;
13122;SDS011;6627;50.920;12.050;2023-07-08T11:43:20;6.28;;;4.03;;
13122;SDS011;6627;50.920;12.050;2023-07-08T11:45:53;4.65;;;3.78;;
13122;SDS011;6627;50.920;12.050;2023-07-08T11:48:25;6.03;;;4.43;;
13122;SDS011;6627;50.920;12.050;2023-07-08T11:50:58;6.15;;;3.67;;
13122;SDS011;6627;50.920;12.050;2023-07-08T11:53:31;5.13;;;4.18;;
13122;SDS011;6627;50.920;12.050;2023-07-08T11:56:06;4.85;;;3.63;;
13122;SDS011;6627;50.920;12.050;2023-07-08T11:58:52;4.32;;;3.80;;
13122;SDS011;6627;50.920;12.050;2023-07-08T12:01:32;4.13;;;3.72;;
13122;SDS011;6627;50.920;12.050;2023-07-08T12:04:16;3.88;;;3.58;;
13122;SDS011;6627;50.920;12.050;2023-07-08T12:09:58;4.38;;;3.97;;
13122;SDS011;6627;50.920;12.050;2023-07-08T12:12:32;7.32;;;3.97;;
13122;SDS011;6627;50.920;12.050;2023-07-08T12:15:09;4.63;;;4.15;;
13122;SDS011;6627;50.920;12.050;2023-07-08T12:17:44;4.55;;;3.85;;
13122;SDS011;6627;50.920;12.050;2023-07-08T12:20:16;4.63;;;3.80;;
13122;SDS011;6627;50.920;12.050;2023-07-08T12:22:50;4.43;;;3.80;;
13122;SDS011;6627;50.920;12.050;2023-07-08T12:25:19;6.28;;;3.92;;
13122;SDS011;6627;50.920;12.050;2023-07-08T12:27:49;5.07;;;4.00;;
13122;SDS011;6627;50.920;12.050;2023-07-08T12:30:17;6.47;;;3.90;;
13122;SDS011;6627;50.920;12.050;2023-07-08T12:32:45;7.82;;;4.10;;
13122;SDS011;6627;50.920;12.050;2023-07-08T12:35:18;5.28;;;4.05;;
13122;SDS011;6627;50.920;12.050;2023-07-08T12:37:52;4.40;;;3.88;;
13122;SDS011;6627;50.920;12.050;2023-07-08T12:40:25;4.32;;;3.92;;
13122;SDS011;6627;50.920;12.050;2023-07-08T12:42:53;7.22;;;4.05;;
13122;SDS011;6627;50.920;12.050;2023-07-08T12:45:21;5.32;;;4.00;;
13122;SDS011;6627;50.920;12.050;2023-07-08T12:47:50;5.55;;;4.00;;
13122;SDS011;6627;50.920;12.050;2023-07-08T12:50:19;5.47;;;4.22;;
13122;SDS011;6627;50.920;12.050;2023-07-08T12:52:46;4.65;;;4.22;;
13122;SDS011;6627;50.920;12.050;2023-07-08T12:55:15;4.47;;;3.97;;
13122;SDS011;6627;50.920;12.050;2023-07-08T12:57:44;5.10;;;3.83;;
13122;SDS011;6627;50.920;12.050;2023-07-08T13:00:15;4.45;;;3.90;;
13122;SDS011;6627;50.920;12.050;2023-07-08T13:02:50;5.28;;;4.07;;
13122;SDS011;6627;50.920;12.050;2023-07-08T13:05:25;4.15;;;3.72;;
13122;SDS011;6627;50.920;12.050;2023-07-08T13:07:53;5.00;;;4.50;;
13122;SDS011;6627;50.920;12.050;2023-07-08T13:10:24;4.38;;;3.97;;
13122;SDS011;6627;50.920;12.050;2023-07-08T13:12:55;4.68;;;4.28;;
13122;SDS011;6627;50.920;12.050;2023-07-08T13:15:27;4.40;;;4.00;;
13122;SDS011;6627;50.920;12.050;2023-07-08T13:18:01;5.30;;;4.10;;
13122;SDS011;6627;50.920;12.050;2023-07-08T13:20:29;6.28;;;4.22;;
13122;SDS011;6627;50.920;12.050;2023-07-08T13:22:58;4.32;;;3.92;;
13122;SDS011;6627;50.920;12.050;2023-07-08T13:25:31;5.82;;;4.65;;
13122;SDS011;6627;50.920;12.050;2023-07-08T13:27:59;4.85;;;4.18;;
13122;SDS011;6627;50.920;12.050;2023-07-08T13:30:30;7.43;;;4.32;;
13122;SDS011;6627;50.920;12.050;2023-07-08T13:32:58;4.70;;;4.30;;
13122;SDS011;6627;50.920;12.050;2023-07-08T13:35:27;4.57;;;4.18;;
13122;SDS011;6627;50.920;12.050;2023-07-08T13:38:02;5.00;;;4.50;;
13122;SDS011;6627;50.920;12.050;2023-07-08T13:40:31;7.50;;;4.50;;
13122;SDS011;6627;50.920;12.050;2023-07-08T13:42:59;5.15;;;4.63;;
13122;SDS011;6627;50.920;12.050;2023-07-08T13:45:28;5.75;;;4.53;;
13122;SDS011;6627;50.920;12.050;2023-07-08T13:47:58;5.45;;;4.65;;
13122;SDS011;6627;50.920;12.050;2023-07-08T13:50:30;6.22;;;4.78;;
13122;SDS011;6627;50.920;12.050;2023-07-08T13:53:16;5.20;;;4.70;;
13122;SDS011;6627;50.920;12.050;2023-07-08T13:55:55;5.05;;;4.57;;
13122;SDS011;6627;50.920;12.050;2023-07-08T13:58:26;5.30;;;4.80;;
13122;SDS011;6627;50.920;12.050;2023-07-08T14:00:56;5.75;;;4.70;;
13122;SDS011;6627;50.920;12.050;2023-07-08T14:03:25;6.57;;;4.90;;
13122;SDS011;6627;50.920;12.050;2023-07-08T14:05:52;5.82;;;5.18;;
13122;SDS011;6627;50.920;12.050;2023-07-08T14:08:19;6.78;;;5.00;;
13122;SDS011;6627;50.920;12.050;2023-07-08T14:10:47;5.65;;;5.10;;
13122;SDS011;6627;50.920;12.050;2023-07-08T14:13:16;5.10;;;4.70;;
13122;SDS011;6627;50.920;12.050;2023-07-08T14:15:43;7.75;;;5.15;;
13122;SDS011;6627;50.920;12.050;2023-07-08T14:18:12;5.15;;;4.65;;
13122;SDS011;6627;50.920;12.050;2023-07-08T14:20:40;5.57;;;5.07;;
13122;SDS011;6627;50.920;12.050;2023-07-08T14:23:08;5.47;;;4.63;;
13122;SDS011;6627;50.920;12.050;2023-07-08T14:25:38;6.13;;;4.80;;
13122;SDS011;6627;50.920;12.050;2023-07-08T14:28:07;5.50;;;4.63;;
13122;SDS011;6627;50.920;12.050;2023-07-08T14:30:36;6.88;;;4.65;;
13122;SDS011;6627;50.920;12.050;2023-07-08T14:33:10;5.43;;;4.82;;
13122;SDS011;6627;50.920;12.050;2023-07-08T14:35:38;7.85;;;4.93;;
13122;SDS011;6627;50.920;12.050;2023-07-08T14:38:08;5.32;;;4.70;;
13122;SDS011;6627;50.920;12.050;2023-07-08T14:40:37;7.85;;;5.22;;
13122;SDS011;6627;50.920;12.050;2023-07-08T14:43:10;8.13;;;5.45;;
13122;SDS011;6627;50.920;12.050;2023-07-08T14:45:46;6.13;;;5.30;;
13122;SDS011;6627;50.920;12.050;2023-07-08T14:48:17;5.70;;;4.63;;
13122;SDS011;6627;50.920;12.050;2023-07-08T14:50:44;5.55;;;5.05;;
13122;SDS011;6627;50.920;12.050;2023-07-08T14:53:12;6.85;;;4.82;;
13122;SDS011;6627;50.920;12.050;2023-07-08T14:55:40;5.95;;;5.30;;
13122;SDS011;6627;50.920;12.050;2023-07-08T14:58:13;5.65;;;5.00;;
13122;SDS011;6627;50.920;12.050;2023-07-08T15:00:48;5.55;;;4.90;;
13122;SDS011;6627;50.920;12.050;2023-07-08T15:03:16;5.60;;;5.05;;
13122;SDS011;6627;50.920;12.050;2023-07-08T15:05:44;6.75;;;5.30;;
13122;SDS011;6627;50.920;12.050;2023-07-08T15:08:11;6.88;;;5.30;;
13122;SDS011;6627;50.920;12.050;2023-07-08T15:10:38;6.20;;;4.90;;
13122;SDS011;6627;50.920;12.050;2023-07-08T15:13:13;5.00;;;4.50;;